Airports Portugal Faro Airport

Faro Airport (LPFR / FAO)

Facts about Faro Airport

Name Faro Airport
City Faro
Country Portugal
ICAO code LPFR
IATA code FAO
Elevation 7.3152 meters (24 feet)

Weather

METAR

Metar data retrieved Saturday, 20 July 2024 at 01:25 UTC (0 minutes ago)

LPFR 200100Z 29007KT CAVOK 27/13 Q1014

Live traffic

Navigraph Charts (account required)